createdAt,value
2023-05-15T00:00:53.738Z,993.59
2023-05-15T00:01:53.782Z,993.58
2023-05-15T00:02:53.820Z,993.56
2023-05-15T00:03:53.848Z,993.56
2023-05-15T00:04:53.765Z,993.55
2023-05-15T00:05:53.702Z,993.55
2023-05-15T00:06:53.689Z,993.54
2023-05-15T00:07:53.678Z,993.53
2023-05-15T00:08:53.673Z,993.53
2023-05-15T00:09:53.706Z,993.53
2023-05-15T00:11:01.713Z,993.51
2023-05-15T00:11:53.662Z,993.49
2023-05-15T00:12:53.608Z,993.48
2023-05-15T00:13:53.638Z,993.46
2023-05-15T00:14:53.602Z,993.44
2023-05-15T00:15:53.636Z,993.42
2023-05-15T00:16:53.599Z,993.40
2023-05-15T00:17:53.627Z,993.39
2023-05-15T00:18:53.633Z,993.38
2023-05-15T00:19:53.544Z,993.36
2023-05-15T00:20:53.558Z,993.36
2023-05-15T00:21:53.551Z,993.36
2023-05-15T00:22:53.530Z,993.35
2023-05-15T00:23:53.537Z,993.35
2023-05-15T00:24:53.496Z,993.35
2023-05-15T00:25:53.586Z,993.34
2023-05-15T00:26:53.493Z,993.34
2023-05-15T00:27:53.481Z,993.34
2023-05-15T00:28:53.474Z,993.32
2023-05-15T00:29:53.444Z,993.31
2023-05-15T00:30:53.438Z,993.30
2023-05-15T00:31:53.572Z,993.29
2023-05-15T00:32:53.491Z,993.28
2023-05-15T00:33:53.435Z,993.26
2023-05-15T00:34:53.409Z,993.25
2023-05-15T00:35:53.419Z,993.23
2023-05-15T00:36:53.385Z,993.23
2023-05-15T00:37:53.419Z,993.21
2023-05-15T00:38:53.366Z,993.21
2023-05-15T00:39:53.360Z,993.20
2023-05-15T00:40:53.363Z,993.20
2023-05-15T00:41:53.340Z,993.20
2023-05-15T00:42:53.324Z,993.21
2023-05-15T00:43:53.338Z,993.22
2023-05-15T00:44:53.296Z,993.22
2023-05-15T00:45:53.293Z,993.22
2023-05-15T00:46:53.280Z,993.21
2023-05-15T00:47:53.354Z,993.20
2023-05-15T00:48:53.237Z,993.20
2023-05-15T00:49:53.259Z,993.19
2023-05-15T00:50:53.283Z,993.19
2023-05-15T00:51:53.235Z,993.18
2023-05-15T00:52:53.221Z,993.19
2023-05-15T00:53:53.259Z,993.18
2023-05-15T00:54:53.187Z,993.17
2023-05-15T00:55:53.194Z,993.17
2023-05-15T00:56:53.158Z,993.15
2023-05-15T00:57:53.216Z,993.15
2023-05-15T00:58:53.151Z,993.14
2023-05-15T00:59:53.155Z,993.13
2023-05-15T01:00:53.174Z,993.11
2023-05-15T01:01:53.185Z,993.11
2023-05-15T01:02:53.209Z,993.11
2023-05-15T01:03:53.188Z,993.11
2023-05-15T01:04:53.080Z,993.10
2023-05-15T01:05:53.102Z,993.09
2023-05-15T01:06:53.050Z,993.08
2023-05-15T01:07:53.120Z,993.08
2023-05-15T01:08:53.030Z,993.08
2023-05-15T01:09:53.049Z,993.07
2023-05-15T01:10:53.004Z,993.06
2023-05-15T01:11:53.026Z,993.04
2023-05-15T01:12:53.042Z,993.03
2023-05-15T01:13:52.967Z,993.02
2023-05-15T01:14:53.001Z,993.02
2023-05-15T01:15:52.952Z,993.01
2023-05-15T01:16:55.931Z,993.01
2023-05-15T01:17:52.967Z,993.01
2023-05-15T01:18:53.068Z,993.01
2023-05-15T01:19:53.058Z,993.01
2023-05-15T01:20:52.940Z,993.01
2023-05-15T01:21:52.910Z,993.01
2023-05-15T01:22:52.912Z,993.02
2023-05-15T01:23:52.900Z,993.03
2023-05-15T01:24:52.913Z,993.03
2023-05-15T01:25:52.866Z,993.05
2023-05-15T01:26:52.869Z,993.05
2023-05-15T01:27:52.852Z,993.05
2023-05-15T01:28:52.853Z,993.05
2023-05-15T01:29:52.820Z,993.05
2023-05-15T01:30:52.849Z,993.04
2023-05-15T01:31:52.911Z,993.04
2023-05-15T01:32:52.890Z,993.04
2023-05-15T01:33:52.783Z,993.03
2023-05-15T01:34:52.793Z,993.02
2023-05-15T01:35:52.751Z,993.00
2023-05-15T01:36:52.760Z,992.99
2023-05-15T01:37:52.755Z,992.98
2023-05-15T01:38:52.751Z,992.97
2023-05-15T01:39:52.721Z,992.97
2023-05-15T01:40:52.731Z,992.96
2023-05-15T01:41:52.729Z,992.96
2023-05-15T01:42:52.728Z,992.96
2023-05-15T01:43:52.694Z,992.96
2023-05-15T01:44:52.697Z,992.96
2023-05-15T01:45:52.704Z,992.96
2023-05-15T01:46:52.947Z,992.95
2023-05-15T01:47:52.679Z,992.96
2023-05-15T01:48:52.656Z,992.96
2023-05-15T01:49:52.618Z,992.96
2023-05-15T01:50:52.637Z,992.97
2023-05-15T01:51:52.584Z,992.98
2023-05-15T01:52:52.619Z,992.99
2023-05-15T01:53:52.561Z,992.99
2023-05-15T01:54:52.582Z,993.00
2023-05-15T01:55:52.541Z,993.00
2023-05-15T01:56:52.558Z,992.99
2023-05-15T01:57:52.564Z,993.00
2023-05-15T01:58:52.539Z,992.99
2023-05-15T01:59:52.520Z,992.98
2023-05-15T02:00:52.833Z,992.97
2023-05-15T02:01:52.533Z,992.96
2023-05-15T02:02:52.589Z,992.96
2023-05-15T02:03:52.498Z,992.95
2023-05-15T02:04:52.483Z,992.94
2023-05-15T02:05:52.452Z,992.94
2023-05-15T02:06:52.495Z,992.93
2023-05-15T02:07:52.409Z,992.93
2023-05-15T02:08:52.442Z,992.92
2023-05-15T02:09:52.389Z,992.93
2023-05-15T02:10:52.402Z,992.92
2023-05-15T02:11:52.403Z,992.92
2023-05-15T02:12:52.382Z,992.91
2023-05-15T02:13:52.413Z,992.90
2023-05-15T02:14:52.373Z,992.89
2023-05-15T02:15:52.360Z,992.89
2023-05-15T02:16:52.346Z,992.90
2023-05-15T02:17:52.365Z,992.90
2023-05-15T02:18:52.432Z,992.91
2023-05-15T02:19:52.310Z,992.92
2023-05-15T02:20:52.297Z,992.92
2023-05-15T02:21:52.272Z,992.91
2023-05-15T02:22:52.309Z,992.91
2023-05-15T02:23:52.253Z,992.89
2023-05-15T02:24:52.306Z,992.87
2023-05-15T02:25:52.231Z,992.86
2023-05-15T02:26:52.240Z,992.84
2023-05-15T02:27:52.226Z,992.83
2023-05-15T02:28:52.257Z,992.83
2023-05-15T02:29:52.211Z,992.85
2023-05-15T02:30:52.627Z,992.86
2023-05-15T02:31:52.196Z,992.87
2023-05-15T02:32:52.351Z,992.87
2023-05-15T02:33:52.145Z,992.87
2023-05-15T02:34:52.208Z,992.87
2023-05-15T02:35:52.163Z,992.86
2023-05-15T02:36:52.138Z,992.85
2023-05-15T02:37:52.098Z,992.84
2023-05-15T02:38:52.116Z,992.82
2023-05-15T02:39:52.090Z,992.80
2023-05-15T02:40:52.137Z,992.78
2023-05-15T02:41:52.087Z,992.75
2023-05-15T02:42:52.077Z,992.74
2023-05-15T02:43:52.051Z,992.72
2023-05-15T02:44:52.051Z,992.72
2023-05-15T02:45:52.028Z,992.72
2023-05-15T02:46:52.060Z,992.72
2023-05-15T02:47:52.066Z,992.71
2023-05-15T02:48:52.043Z,992.71
2023-05-15T02:49:51.978Z,992.71
2023-05-15T02:50:51.993Z,992.72
2023-05-15T02:51:52.001Z,992.73
2023-05-15T02:52:51.977Z,992.73
2023-05-15T02:53:51.957Z,992.72
2023-05-15T02:54:51.961Z,992.74
2023-05-15T02:55:52.048Z,992.74
2023-05-15T02:56:51.981Z,992.74
2023-05-15T02:57:51.907Z,992.74
2023-05-15T02:58:51.915Z,992.73
2023-05-15T02:59:51.874Z,992.71
2023-05-15T03:00:51.932Z,992.70
2023-05-15T03:01:51.899Z,992.69
2023-05-15T03:02:51.916Z,992.69
2023-05-15T03:03:51.853Z,992.68
2023-05-15T03:04:51.842Z,992.68
2023-05-15T03:05:51.847Z,992.67
2023-05-15T03:06:51.843Z,992.66
2023-05-15T03:07:51.759Z,992.66
2023-05-15T03:08:51.867Z,992.66
2023-05-15T03:09:51.727Z,992.66
2023-05-15T03:10:52.454Z,992.65
2023-05-15T03:11:51.700Z,992.64
2023-05-15T03:12:51.714Z,992.64
2023-05-15T03:13:51.709Z,992.63
2023-05-15T03:14:51.704Z,992.63
2023-05-15T03:15:51.671Z,992.61
2023-05-15T03:16:51.704Z,992.60
2023-05-15T03:17:51.692Z,992.58
2023-05-15T03:18:51.742Z,992.57
2023-05-15T03:19:51.610Z,992.56
2023-05-15T03:20:51.663Z,992.55
2023-05-15T03:21:51.611Z,992.56
2023-05-15T03:22:51.629Z,992.57
2023-05-15T03:23:51.564Z,992.57
2023-05-15T03:24:51.651Z,992.58
2023-05-15T03:25:51.568Z,992.59
2023-05-15T03:26:51.582Z,992.59
2023-05-15T03:27:51.557Z,992.60
2023-05-15T03:28:51.557Z,992.60
2023-05-15T03:29:51.499Z,992.59
2023-05-15T03:30:51.567Z,992.58
2023-05-15T03:31:51.517Z,992.57
2023-05-15T03:32:51.708Z,992.55
2023-05-15T03:33:51.601Z,992.54
2023-05-15T03:34:51.494Z,992.54
2023-05-15T03:35:51.528Z,992.54
2023-05-15T03:36:51.468Z,992.54
2023-05-15T03:37:51.447Z,992.55
2023-05-15T03:38:51.490Z,992.56
2023-05-15T03:39:51.422Z,992.56
2023-05-15T03:40:51.473Z,992.56
2023-05-15T03:41:51.386Z,992.55
2023-05-15T03:42:51.461Z,992.54
2023-05-15T03:43:51.387Z,992.53
2023-05-15T03:44:51.397Z,992.52
2023-05-15T03:45:51.354Z,992.52
2023-05-15T03:46:51.450Z,992.52
2023-05-15T03:47:51.362Z,992.52
2023-05-15T03:48:51.377Z,992.52
2023-05-15T03:49:51.314Z,992.51
2023-05-15T03:50:51.330Z,992.52
2023-05-15T03:51:51.295Z,992.52
2023-05-15T03:52:51.309Z,992.51
2023-05-15T03:53:51.263Z,992.52
2023-05-15T03:54:51.320Z,992.52
2023-05-15T03:55:51.241Z,992.53
2023-05-15T03:56:51.265Z,992.54
2023-05-15T03:57:51.276Z,992.56
2023-05-15T03:58:51.254Z,992.57
2023-05-15T03:59:51.216Z,992.57
2023-05-15T04:00:51.232Z,992.57
2023-05-15T04:02:03.460Z,992.56
2023-05-15T04:02:51.286Z,992.55
2023-05-15T04:03:51.177Z,992.53
2023-05-15T04:04:51.269Z,992.52
2023-05-15T04:05:51.137Z,992.51
2023-05-15T04:06:51.148Z,992.50
2023-05-15T04:07:51.122Z,992.50
2023-05-15T04:08:51.151Z,992.50
2023-05-15T04:09:51.118Z,992.50
2023-05-15T04:10:51.121Z,992.50
2023-05-15T04:11:51.077Z,992.50
2023-05-15T04:12:51.115Z,992.50
2023-05-15T04:13:51.091Z,992.50
2023-05-15T04:14:51.061Z,992.51
2023-05-15T04:15:51.048Z,992.51
2023-05-15T04:16:51.123Z,992.52
2023-05-15T04:17:51.016Z,992.52
2023-05-15T04:18:51.109Z,992.53
2023-05-15T04:19:51.009Z,992.52
2023-05-15T04:20:51.013Z,992.51
2023-05-15T04:21:50.985Z,992.50
2023-05-15T04:22:50.989Z,992.49
2023-05-15T04:23:50.958Z,992.49
2023-05-15T04:24:51.000Z,992.48
2023-05-15T04:25:50.946Z,992.49
2023-05-15T04:26:50.978Z,992.49
2023-05-15T04:27:50.950Z,992.49
2023-05-15T04:29:02.957Z,992.49
2023-05-15T04:29:50.914Z,992.50
2023-05-15T04:30:50.948Z,992.49
2023-05-15T04:31:50.924Z,992.49
2023-05-15T04:32:50.949Z,992.48
2023-05-15T04:33:51.409Z,992.47
2023-05-15T04:34:50.893Z,992.47
2023-05-15T04:35:50.848Z,992.47
2023-05-15T04:36:50.856Z,992.47
2023-05-15T04:37:50.801Z,992.47
2023-05-15T04:38:50.822Z,992.47
2023-05-15T04:39:50.812Z,992.47
2023-05-15T04:40:50.809Z,992.47
2023-05-15T04:41:50.812Z,992.47
2023-05-15T04:42:50.799Z,992.47
2023-05-15T04:43:50.749Z,992.48
2023-05-15T04:44:50.755Z,992.48
2023-05-15T04:45:50.764Z,992.48
2023-05-15T04:46:50.776Z,992.48
2023-05-15T04:47:50.767Z,992.47
2023-05-15T04:48:50.726Z,992.46
2023-05-15T04:49:50.672Z,992.44
2023-05-15T04:50:50.696Z,992.44
2023-05-15T04:51:50.695Z,992.43
2023-05-15T04:52:50.685Z,992.44
2023-05-15T04:53:50.665Z,992.45
2023-05-15T04:54:50.683Z,992.45
2023-05-15T04:55:50.616Z,992.45
2023-05-15T04:56:50.640Z,992.45
2023-05-15T04:57:50.619Z,992.46
2023-05-15T04:58:50.603Z,992.46
2023-05-15T04:59:50.603Z,992.46
2023-05-15T05:00:50.608Z,992.45
2023-05-15T05:01:50.661Z,992.44
2023-05-15T05:02:50.644Z,992.43
2023-05-15T05:03:50.656Z,992.42
2023-05-15T05:04:50.634Z,992.42
2023-05-15T05:05:50.531Z,992.42
2023-05-15T05:06:50.540Z,992.42
2023-05-15T05:07:50.491Z,992.43
2023-05-15T05:08:50.554Z,992.43
2023-05-15T05:09:50.521Z,992.43
2023-05-15T05:10:50.560Z,992.43
2023-05-15T05:11:50.484Z,992.43
2023-05-15T05:12:50.482Z,992.43
2023-05-15T05:13:50.459Z,992.43
2023-05-15T05:14:50.487Z,992.43
2023-05-15T05:15:50.459Z,992.42
2023-05-15T05:16:50.441Z,992.42
2023-05-15T05:17:50.469Z,992.42
2023-05-15T05:18:50.491Z,992.42
2023-05-15T05:19:50.412Z,992.42
2023-05-15T05:20:50.384Z,992.42
2023-05-15T05:21:50.387Z,992.42
2023-05-15T05:22:50.404Z,992.42
2023-05-15T05:23:50.348Z,992.42
2023-05-15T05:24:50.357Z,992.42
2023-05-15T05:25:50.320Z,992.41
2023-05-15T05:26:50.329Z,992.41
2023-05-15T05:27:50.368Z,992.41
2023-05-15T05:28:50.286Z,992.42
2023-05-15T05:29:50.332Z,992.43
2023-05-15T05:30:50.261Z,992.43
2023-05-15T05:31:50.391Z,992.43
2023-05-15T05:32:50.278Z,992.42
2023-05-15T05:33:50.277Z,992.40
2023-05-15T05:34:50.237Z,992.39
2023-05-15T05:35:50.277Z,992.37
2023-05-15T05:36:50.215Z,992.35
2023-05-15T05:37:50.255Z,992.33
2023-05-15T05:38:50.230Z,992.32
2023-05-15T05:39:50.202Z,992.32
2023-05-15T05:40:50.159Z,992.32
2023-05-15T05:41:50.175Z,992.33
2023-05-15T05:42:50.173Z,992.33
2023-05-15T05:43:50.165Z,992.33
2023-05-15T05:44:50.212Z,992.34
2023-05-15T05:45:50.137Z,992.34
2023-05-15T05:46:50.121Z,992.34
2023-05-15T05:47:50.149Z,992.35
2023-05-15T05:48:50.095Z,992.36
2023-05-15T05:49:50.118Z,992.37
2023-05-15T05:50:50.103Z,992.39
2023-05-15T05:51:50.065Z,992.40
2023-05-15T05:52:50.052Z,992.42
2023-05-15T05:53:50.072Z,992.43
2023-05-15T05:54:50.054Z,992.44
2023-05-15T05:56:02.578Z,992.44
2023-05-15T05:56:49.985Z,992.45
2023-05-15T05:57:50.048Z,992.45
2023-05-15T05:58:49.970Z,992.45
2023-05-15T05:59:50.029Z,992.45
2023-05-15T06:00:49.962Z,992.46
2023-05-15T06:01:49.995Z,992.46
2023-05-15T06:02:50.186Z,992.47
2023-05-15T06:03:50.037Z,992.47
2023-05-15T06:04:50.095Z,992.47
2023-05-15T06:05:49.940Z,992.47
2023-05-15T06:06:49.904Z,992.47
2023-05-15T06:07:49.954Z,992.46
2023-05-15T06:08:49.908Z,992.45
2023-05-15T06:09:49.931Z,992.45
2023-05-15T06:10:49.848Z,992.45
2023-05-15T06:11:49.874Z,992.43
2023-05-15T06:12:49.837Z,992.42
2023-05-15T06:13:49.866Z,992.40
2023-05-15T06:14:49.830Z,992.39
2023-05-15T06:15:49.857Z,992.39
2023-05-15T06:16:49.844Z,992.40
2023-05-15T06:17:49.813Z,992.41
2023-05-15T06:18:49.904Z,992.43
2023-05-15T06:19:49.802Z,992.43
2023-05-15T06:20:49.785Z,992.43
2023-05-15T06:21:49.759Z,992.44
2023-05-15T06:22:49.735Z,992.45
2023-05-15T06:23:49.758Z,992.45
2023-05-15T06:24:49.723Z,992.46
2023-05-15T06:25:49.739Z,992.45
2023-05-15T06:26:50.537Z,992.45
2023-05-15T06:27:49.785Z,992.45
2023-05-15T06:28:49.660Z,992.45
2023-05-15T06:29:49.723Z,992.45
2023-05-15T06:30:49.748Z,992.45
2023-05-15T06:31:49.681Z,992.45
2023-05-15T06:32:49.673Z,992.44
2023-05-15T06:33:49.633Z,992.44
2023-05-15T06:34:49.599Z,992.43
2023-05-15T06:35:49.640Z,992.41
2023-05-15T06:36:49.607Z,992.39
2023-05-15T06:37:49.618Z,992.38
2023-05-15T06:38:49.560Z,992.35
2023-05-15T06:39:49.576Z,992.34
2023-05-15T06:40:49.574Z,992.32
2023-05-15T06:41:49.554Z,992.31
2023-05-15T06:42:49.568Z,992.31
2023-05-15T06:43:49.555Z,992.30
2023-05-15T06:44:49.512Z,992.30
2023-05-15T06:45:49.577Z,992.31
2023-05-15T06:46:49.520Z,992.31
2023-05-15T06:47:49.619Z,992.32
2023-05-15T06:48:49.472Z,992.32
2023-05-15T06:49:49.483Z,992.33
2023-05-15T06:50:49.461Z,992.33
2023-05-15T06:51:49.485Z,992.32
2023-05-15T06:52:49.452Z,992.33
2023-05-15T06:53:49.461Z,992.33
2023-05-15T06:54:49.398Z,992.33
2023-05-15T06:55:49.427Z,992.34
2023-05-15T06:56:49.386Z,992.34
2023-05-15T06:57:49.421Z,992.35
2023-05-15T06:58:49.400Z,992.35
2023-05-15T06:59:49.371Z,992.35
2023-05-15T07:00:49.340Z,992.35
2023-05-15T07:01:49.391Z,992.36
2023-05-15T07:02:49.394Z,992.36
2023-05-15T07:03:49.365Z,992.36
2023-05-15T07:04:49.332Z,992.34
2023-05-15T07:05:49.313Z,992.33
2023-05-15T07:06:49.282Z,992.31
2023-05-15T07:07:49.322Z,992.29
2023-05-15T07:08:49.319Z,992.28
2023-05-15T07:09:49.274Z,992.28
2023-05-15T07:10:49.248Z,992.26
2023-05-15T07:11:49.254Z,992.25
2023-05-15T07:12:49.249Z,992.26
2023-05-15T07:13:50.691Z,992.25
2023-05-15T07:14:49.203Z,992.25
2023-05-15T07:15:49.257Z,992.25
2023-05-15T07:16:49.235Z,992.25
2023-05-15T07:17:57.054Z,992.26
2023-05-15T07:18:49.263Z,992.27
2023-05-15T07:19:49.176Z,992.27
2023-05-15T07:20:49.132Z,992.27
2023-05-15T07:21:49.181Z,992.26
2023-05-15T07:22:56.272Z,992.26
2023-05-15T07:23:49.148Z,992.27
2023-05-15T07:24:49.081Z,992.26
2023-05-15T07:25:49.103Z,992.27
2023-05-15T07:26:58.290Z,992.26
2023-05-15T07:27:49.111Z,992.25
2023-05-15T07:28:49.034Z,992.23
2023-05-15T07:29:49.059Z,992.21
2023-05-15T07:30:49.051Z,992.20
2023-05-15T07:31:49.107Z,992.18
2023-05-15T07:32:49.041Z,992.17
2023-05-15T07:33:49.004Z,992.16
2023-05-15T07:34:48.999Z,992.16
2023-05-15T07:35:48.988Z,992.14
2023-05-15T07:36:48.979Z,992.12
2023-05-15T07:37:49.025Z,992.10
2023-05-15T07:38:48.983Z,992.09
2023-05-15T07:39:49.014Z,992.10
2023-05-15T07:40:48.931Z,992.10
2023-05-15T07:41:48.945Z,992.10
2023-05-15T07:42:48.894Z,992.09
2023-05-15T07:43:48.926Z,992.09
2023-05-15T07:44:49.680Z,992.09
2023-05-15T07:45:48.931Z,992.07
2023-05-15T07:46:48.927Z,992.06
2023-05-15T07:47:49.030Z,992.05
2023-05-15T07:48:48.834Z,992.05
2023-05-15T07:49:48.835Z,992.02
2023-05-15T07:50:48.850Z,992.01
2023-05-15T07:51:48.836Z,992.01
2023-05-15T07:52:48.781Z,992.02
2023-05-15T07:53:48.807Z,992.04
2023-05-15T07:54:48.772Z,992.04
2023-05-15T07:55:48.813Z,992.04
2023-05-15T07:56:48.754Z,992.03
2023-05-15T07:57:53.534Z,992.03
2023-05-15T07:58:48.769Z,992.01
2023-05-15T07:59:48.737Z,992.00
2023-05-15T08:00:48.738Z,991.99
2023-05-15T08:01:48.730Z,991.98
2023-05-15T08:02:48.776Z,991.96
2023-05-15T08:03:48.778Z,991.95
2023-05-15T08:04:48.675Z,991.95
2023-05-15T08:05:48.700Z,991.94
2023-05-15T08:06:48.668Z,991.94
2023-05-15T08:07:48.665Z,991.93
2023-05-15T08:08:48.629Z,991.93
2023-05-15T08:09:48.646Z,991.92
2023-05-15T08:10:48.626Z,991.92
2023-05-15T08:11:48.682Z,991.91
2023-05-15T08:12:48.572Z,991.90
2023-05-15T08:13:48.677Z,991.89
2023-05-15T08:14:48.610Z,991.88
2023-05-15T08:15:48.668Z,991.87
2023-05-15T08:16:48.544Z,991.86
2023-05-15T08:17:48.613Z,991.85
2023-05-15T08:18:48.532Z,991.85
2023-05-15T08:19:48.548Z,991.84
2023-05-15T08:20:48.524Z,991.84
2023-05-15T08:21:48.505Z,991.82
2023-05-15T08:22:48.481Z,991.81
2023-05-15T08:23:48.503Z,991.79
2023-05-15T08:24:48.486Z,991.78
2023-05-15T08:25:48.488Z,991.78
2023-05-15T08:26:48.421Z,991.78
2023-05-15T08:27:48.476Z,991.78
2023-05-15T08:28:48.414Z,991.78
2023-05-15T08:29:48.440Z,991.79
2023-05-15T08:30:48.392Z,991.79
2023-05-15T08:31:48.464Z,991.79
2023-05-15T08:32:48.496Z,991.78
2023-05-15T08:33:48.409Z,991.78
2023-05-15T08:34:48.353Z,991.77
2023-05-15T08:35:48.414Z,991.76
2023-05-15T08:36:48.352Z,991.75
2023-05-15T08:37:48.342Z,991.74
2023-05-15T08:38:48.295Z,991.73
2023-05-15T08:39:48.341Z,991.72
2023-05-15T08:40:48.338Z,991.71
2023-05-15T08:41:48.314Z,991.72
2023-05-15T08:42:48.263Z,991.72
2023-05-15T08:43:48.291Z,991.72
2023-05-15T08:44:48.258Z,991.72
2023-05-15T08:45:48.277Z,991.73
2023-05-15T08:46:48.307Z,991.73
2023-05-15T08:47:48.298Z,991.74
2023-05-15T08:48:48.287Z,991.75
2023-05-15T08:49:48.244Z,991.75
2023-05-15T08:50:48.224Z,991.75
2023-05-15T08:51:48.190Z,991.76
2023-05-15T08:52:48.160Z,991.76
2023-05-15T08:53:48.196Z,991.75
2023-05-15T08:54:48.600Z,991.73
2023-05-15T08:55:48.197Z,991.72
2023-05-15T08:56:48.125Z,991.72
2023-05-15T08:57:48.133Z,991.70
2023-05-15T08:58:48.102Z,991.67
2023-05-15T08:59:48.159Z,991.66
2023-05-15T09:00:48.113Z,991.64
2023-05-15T09:01:48.139Z,991.63
2023-05-15T09:02:48.146Z,991.62
2023-05-15T09:03:48.148Z,991.60
2023-05-15T09:04:48.034Z,991.59
2023-05-15T09:05:48.099Z,991.59
2023-05-15T09:06:48.039Z,991.58
2023-05-15T09:07:48.083Z,991.58
2023-05-15T09:08:47.997Z,991.56
2023-05-15T09:09:48.057Z,991.55
2023-05-15T09:10:47.970Z,991.56
2023-05-15T09:11:47.992Z,991.56
2023-05-15T09:12:47.978Z,991.57
2023-05-15T09:13:47.983Z,991.51
2023-05-15T09:14:47.953Z,991.56
2023-05-15T09:16:02.947Z,991.51
2023-05-15T09:16:47.946Z,991.56
2023-05-15T09:17:47.963Z,991.56
2023-05-15T09:18:48.921Z,991.53
2023-05-15T09:19:47.908Z,991.52
2023-05-15T09:20:47.873Z,991.50
2023-05-15T09:21:47.909Z,991.49
2023-05-15T09:22:49.459Z,991.54
2023-05-15T09:23:47.864Z,991.55
2023-05-15T09:24:47.851Z,991.54
2023-05-15T09:25:47.855Z,991.53
2023-05-15T09:26:47.867Z,991.56
2023-05-15T09:27:47.842Z,991.54
2023-05-15T09:28:47.815Z,991.51
2023-05-15T09:29:47.943Z,991.51
2023-05-15T09:30:47.762Z,991.51
2023-05-15T09:31:47.784Z,991.56
2023-05-15T09:32:47.816Z,991.53
2023-05-15T09:33:47.769Z,991.55
2023-05-15T09:34:49.183Z,991.52
2023-05-15T09:35:47.741Z,991.51
2023-05-15T09:36:47.703Z,991.51
2023-05-15T09:37:47.751Z,991.48
2023-05-15T09:38:47.705Z,991.49
2023-05-15T09:39:47.757Z,991.46
2023-05-15T09:40:47.709Z,991.47
2023-05-15T09:41:47.652Z,991.47
2023-05-15T09:42:47.664Z,991.50
2023-05-15T09:43:47.627Z,991.49
2023-05-15T09:44:47.681Z,991.49
2023-05-15T09:45:47.627Z,991.49
2023-05-15T09:46:47.804Z,991.53
2023-05-15T09:47:47.657Z,991.46
2023-05-15T09:48:47.629Z,991.46
2023-05-15T09:49:47.589Z,991.51
2023-05-15T09:50:47.604Z,991.43
2023-05-15T09:51:47.586Z,991.40
2023-05-15T09:52:47.561Z,991.41
2023-05-15T09:53:47.540Z,991.43
2023-05-15T09:54:49.621Z,991.42
2023-05-15T09:55:47.509Z,991.40
2023-05-15T09:56:47.562Z,991.41
2023-05-15T09:57:47.502Z,991.39
2023-05-15T09:58:47.535Z,991.41
2023-05-15T09:59:47.475Z,991.39
2023-05-15T10:00:49.644Z,991.42
2023-05-15T10:01:47.488Z,991.38
2023-05-15T10:02:47.492Z,991.37
2023-05-15T10:03:47.436Z,991.37
2023-05-15T10:04:47.502Z,991.30
2023-05-15T10:05:47.479Z,991.30
2023-05-15T10:06:48.316Z,991.33
2023-05-15T10:07:47.385Z,991.32
2023-05-15T10:08:47.408Z,991.31
2023-05-15T10:09:47.393Z,991.28
2023-05-15T10:10:47.375Z,991.34
2023-05-15T10:11:47.383Z,991.36
2023-05-15T10:12:48.333Z,991.38
2023-05-15T10:14:22.977Z,991.28
2023-05-15T10:14:53.077Z,991.35
2023-05-15T10:15:47.364Z,991.34
2023-05-15T10:16:47.301Z,991.36
2023-05-15T10:17:47.349Z,991.36
2023-05-15T10:18:47.339Z,991.35
2023-05-15T10:19:57.263Z,991.34
2023-05-15T10:20:47.262Z,991.30
2023-05-15T10:21:47.321Z,991.31
2023-05-15T10:22:47.257Z,991.34
2023-05-15T10:23:47.295Z,991.34
2023-05-15T10:24:47.223Z,991.34
2023-05-15T10:25:47.235Z,991.30
2023-05-15T10:26:47.226Z,991.25
2023-05-15T10:27:47.285Z,991.21
2023-05-15T10:28:47.234Z,991.19
2023-05-15T10:29:47.202Z,991.16
2023-05-15T10:30:47.159Z,991.21
2023-05-15T10:31:57.241Z,991.21
2023-05-15T10:32:47.152Z,991.16
2023-05-15T10:33:47.186Z,991.15
2023-05-15T10:34:47.109Z,991.14
2023-05-15T10:35:47.141Z,991.14
2023-05-15T10:36:47.099Z,991.12
2023-05-15T10:37:47.107Z,991.13
2023-05-15T10:38:47.104Z,991.11
2023-05-15T10:39:47.128Z,991.10
2023-05-15T10:40:47.074Z,991.11
2023-05-15T10:41:47.087Z,991.13
2023-05-15T10:42:47.056Z,991.16
2023-05-15T10:43:47.087Z,991.18
2023-05-15T10:44:47.018Z,991.16
2023-05-15T10:45:47.106Z,991.13
2023-05-15T10:46:47.029Z,991.07
2023-05-15T10:47:47.032Z,991.07
2023-05-15T10:48:47.042Z,991.05
2023-05-15T10:49:47.000Z,991.08
2023-05-15T10:50:46.971Z,991.08
2023-05-15T10:51:46.978Z,991.08
2023-05-15T10:52:46.935Z,991.06
2023-05-15T10:53:47.004Z,991.09
2023-05-15T10:54:46.911Z,991.08
2023-05-15T10:55:46.964Z,991.10
2023-05-15T10:56:46.997Z,991.15
2023-05-15T10:57:46.961Z,991.12
2023-05-15T10:58:46.874Z,991.13
2023-05-15T10:59:46.887Z,991.14
2023-05-15T11:00:46.925Z,991.14
2023-05-15T11:01:46.971Z,991.17
2023-05-15T11:02:46.884Z,991.15
2023-05-15T11:03:49.626Z,991.19
2023-05-15T11:04:46.875Z,991.19
2023-05-15T11:05:53.607Z,991.18
2023-05-15T11:06:46.843Z,991.20
2023-05-15T11:07:46.848Z,991.22
2023-05-15T11:08:46.774Z,991.33
2023-05-15T11:09:46.810Z,991.22
2023-05-15T11:10:46.757Z,991.24
2023-05-15T11:11:46.764Z,991.26
2023-05-15T11:12:46.747Z,991.24
2023-05-15T11:13:46.743Z,991.26
2023-05-15T11:14:46.748Z,991.24
2023-05-15T11:15:46.759Z,991.24
2023-05-15T11:16:46.757Z,991.21
2023-05-15T11:17:46.745Z,991.20
2023-05-15T11:18:46.712Z,991.19
2023-05-15T11:19:46.701Z,991.18
2023-05-15T11:20:46.659Z,991.23
2023-05-15T11:21:46.671Z,991.18
2023-05-15T11:22:46.628Z,991.19
2023-05-15T11:23:46.651Z,991.09
2023-05-15T11:24:46.706Z,991.12
2023-05-15T11:25:46.636Z,991.12
2023-05-15T11:26:46.590Z,991.12
2023-05-15T11:27:46.636Z,991.11
2023-05-15T11:28:46.582Z,991.13
2023-05-15T11:29:46.638Z,991.05
2023-05-15T11:30:46.571Z,990.96
2023-05-15T11:31:46.584Z,990.98
2023-05-15T11:32:46.641Z,990.95
2023-05-15T11:33:46.544Z,990.97
2023-05-15T11:34:46.513Z,990.95
2023-05-15T11:35:46.571Z,990.91
2023-05-15T11:36:46.493Z,990.97
2023-05-15T11:37:46.490Z,990.91
2023-05-15T11:38:46.463Z,990.89
2023-05-15T11:39:46.485Z,990.88
2023-05-15T11:40:46.530Z,990.87
2023-05-15T11:41:46.461Z,990.85
2023-05-15T11:42:46.424Z,990.88
2023-05-15T11:43:46.534Z,990.87
2023-05-15T11:44:46.399Z,990.88
2023-05-15T11:45:46.472Z,990.87
2023-05-15T11:46:46.498Z,990.89
2023-05-15T11:47:47.032Z,990.91
2023-05-15T11:48:46.365Z,990.88
2023-05-15T11:49:46.384Z,990.85
2023-05-15T11:50:46.358Z,990.89
2023-05-15T11:51:46.412Z,990.86
2023-05-15T11:52:46.336Z,990.84
2023-05-15T11:53:46.381Z,990.83
2023-05-15T11:54:46.326Z,990.81
2023-05-15T11:55:46.309Z,990.78
2023-05-15T11:56:46.307Z,990.77
2023-05-15T11:57:46.297Z,990.77
2023-05-15T11:58:46.266Z,990.77
2023-05-15T11:59:46.481Z,990.76
2023-05-15T12:00:46.280Z,990.76
2023-05-15T12:01:46.286Z,990.75
2023-05-15T12:02:46.304Z,990.77
2023-05-15T12:03:46.401Z,990.77
2023-05-15T12:04:46.233Z,990.76
2023-05-15T12:05:57.497Z,990.74
2023-05-15T12:06:46.241Z,990.76
2023-05-15T12:07:46.202Z,990.73
2023-05-15T12:08:46.184Z,990.73
2023-05-15T12:09:46.191Z,990.72
2023-05-15T12:10:46.155Z,990.71
2023-05-15T12:11:46.158Z,990.72
2023-05-15T12:12:46.172Z,990.68
2023-05-15T12:13:46.131Z,990.70
2023-05-15T12:14:46.106Z,990.69
2023-05-15T12:15:46.175Z,990.70
2023-05-15T12:16:46.147Z,990.66
2023-05-15T12:17:46.237Z,990.69
2023-05-15T12:18:46.093Z,990.71
2023-05-15T12:19:46.069Z,990.70
2023-05-15T12:20:46.070Z,990.72
2023-05-15T12:21:46.076Z,990.74
2023-05-15T12:22:46.023Z,990.74
2023-05-15T12:23:53.315Z,990.77
2023-05-15T12:24:46.001Z,990.77
2023-05-15T12:25:46.055Z,990.79
2023-05-15T12:26:45.978Z,990.81
2023-05-15T12:27:46.020Z,990.79
2023-05-15T12:28:45.949Z,990.79